Time;durP1;ratioP1;P1;durP2;ratioP2;P2;SDS_P1;SDS_P2;PMS_P1;PMS_P2;Temp;Humidity;BMP_temperature;BMP_pressure;BME280_temperature;BME280_humidity;BME280_pressure;Samples;Min_cycle;Max_cycle;Signal;HPM_P1;HPM_P2
2023/07/25 00:01:50;;;;;;;10.07;5.50;;;11.10;99.90;;;;;;5049435;28;20052;-56
2023/07/25 00:04:18;;;;;;;11.18;5.88;;;11.10;99.90;;;;;;5042757;28;20056;-59
2023/07/25 00:06:46;;;;;;;15.38;6.80;;;11.10;99.90;;;;;;5046079;28;20051;-62
2023/07/25 00:09:14;;;;;;;10.98;5.53;;;11.10;99.90;;;;;;5044933;28;20501;-58
2023/07/25 00:11:41;;;;;;;9.75;5.22;;;11.00;99.90;;;;;;5043069;28;20055;-62
2023/07/25 00:14:09;;;;;;;9.35;5.00;;;11.00;99.90;;;;;;5042527;28;20044;-61
2023/07/25 00:16:36;;;;;;;8.75;4.78;;;11.00;99.90;;;;;;5041368;28;20033;-63
2023/07/25 00:19:04;;;;;;;11.15;6.10;;;11.00;99.90;;;;;;5047164;28;20512;-63
2023/07/25 00:21:32;;;;;;;9.70;5.00;;;11.00;99.90;;;;;;5029749;28;20053;-56
2023/07/25 00:24:00;;;;;;;12.32;5.13;;;11.00;99.90;;;;;;5047087;28;20041;-56
2023/07/25 00:26:28;;;;;;;7.95;4.60;;;11.00;99.90;;;;;;5047687;28;20045;-55
2023/07/25 00:28:56;;;;;;;8.77;4.25;;;10.90;99.90;;;;;;5046452;28;20045;-56
2023/07/25 00:31:23;;;;;;;11.05;4.82;;;10.90;99.90;;;;;;5044742;28;20052;-58
2023/07/25 00:33:51;;;;;;;9.43;4.85;;;10.90;99.90;;;;;;5046223;28;20041;-57
2023/07/25 00:36:19;;;;;;;6.80;4.13;;;10.90;99.90;;;;;;5048695;28;20052;-58
2023/07/25 00:38:47;;;;;;;8.02;4.18;;;10.90;99.90;;;;;;5047441;28;20052;-56
2023/07/25 00:41:14;;;;;;;9.07;4.32;;;10.80;99.90;;;;;;5046379;28;20041;-58
2023/07/25 00:43:42;;;;;;;7.47;3.40;;;10.80;99.90;;;;;;5046795;28;20049;-55
2023/07/25 00:46:10;;;;;;;8.70;3.83;;;10.80;99.90;;;;;;5046160;28;20041;-57
2023/07/25 00:48:38;;;;;;;6.97;4.13;;;10.80;99.90;;;;;;5046254;28;20045;-57
2023/07/25 00:51:06;;;;;;;10.48;4.32;;;10.70;99.90;;;;;;5045134;28;20143;-57
2023/07/25 00:53:34;;;;;;;7.13;3.92;;;10.70;99.90;;;;;;5044671;28;20045;-56
2023/07/25 00:56:03;;;;;;;5.75;3.83;;;10.70;99.90;;;;;;5045219;28;20048;-56
2023/07/25 00:58:31;;;;;;;9.93;4.90;;;10.80;99.90;;;;;;5046300;28;20055;-57
2023/07/25 01:01:07;;;;;;;16.85;4.50;;;10.80;99.90;;;;;;5043223;28;20072;-56
2023/07/25 01:03:37;;;;;;;8.98;4.00;;;10.90;99.90;;;;;;5045423;28;20045;-56
2023/07/25 01:06:11;;;;;;;5.32;3.70;;;10.90;99.90;;;;;;5022870;28;20052;-57
2023/07/25 01:08:55;;;;;;;5.13;3.70;;;11.00;99.90;;;;;;5045629;28;20049;-56
2023/07/25 01:11:23;;;;;;;7.93;5.22;;;11.00;99.90;;;;;;5045254;28;20041;-57
2023/07/25 01:13:52;;;;;;;8.45;4.30;;;10.90;99.90;;;;;;5041835;28;20048;-56
2023/07/25 01:16:29;;;;;;;8.32;3.95;;;10.90;99.90;;;;;;5028902;28;20048;-59
2023/07/25 01:18:58;;;;;;;6.68;3.72;;;10.90;99.90;;;;;;5042852;28;20045;-57
2023/07/25 01:21:26;;;;;;;10.57;3.95;;;10.80;99.90;;;;;;5040277;28;20045;-56
2023/07/25 01:24:01;;;;;;;9.02;4.47;;;10.80;99.90;;;;;;5040000;28;20041;-56
2023/07/25 01:26:29;;;;;;;6.63;4.05;;;10.80;99.90;;;;;;5045202;28;20056;-57
2023/07/25 01:28:56;;;;;;;7.78;4.32;;;10.70;99.90;;;;;;5041872;28;20590;-57
2023/07/25 01:31:24;;;;;;;10.23;4.35;;;10.60;99.90;;;;;;5039136;28;20984;-55
2023/07/25 01:33:52;;;;;;;6.75;4.72;;;10.60;99.90;;;;;;5048113;28;20049;-57
2023/07/25 01:36:19;;;;;;;8.40;4.18;;;10.60;99.90;;;;;;5049324;28;20680;-55
2023/07/25 01:38:47;;;;;;;6.75;4.38;;;10.60;99.90;;;;;;5049245;28;20056;-56
2023/07/25 01:41:14;;;;;;;8.95;4.72;;;10.60;99.90;;;;;;5046359;28;20048;-57
2023/07/25 01:43:42;;;;;;;10.60;4.90;;;10.60;99.90;;;;;;5048184;28;20052;-55
2023/07/25 01:46:10;;;;;;;8.73;4.38;;;10.50;99.90;;;;;;5044125;28;20055;-56
2023/07/25 01:48:38;;;;;;;8.98;4.15;;;10.50;99.90;;;;;;5048417;28;20056;-57
2023/07/25 01:51:08;;;;;;;9.50;3.97;;;10.50;99.90;;;;;;5050326;28;20033;-56
2023/07/25 01:53:36;;;;;;;;;;;10.50;99.90;;;;;;5033036;28;20060;-55
2023/07/25 01:56:03;;;;;;;8.00;3.50;;;10.50;99.90;;;;;;5048383;28;19928;-55
2023/07/25 01:58:31;;;;;;;8.50;3.40;;;10.50;99.90;;;;;;5048527;28;20473;-56
2023/07/25 02:00:59;;;;;;;7.00;4.22;;;10.40;99.90;;;;;;5046240;28;20044;-55
2023/07/25 02:03:30;;;;;;;7.90;3.72;;;10.40;99.90;;;;;;5049380;28;20033;-55
2023/07/25 02:05:57;;;;;;;10.73;3.85;;;10.40;99.90;;;;;;5049440;28;20496;-61
2023/07/25 02:08:25;;;;;;;12.48;3.83;;;10.30;99.90;;;;;;5047851;28;20053;-61
2023/07/25 02:10:53;;;;;;;10.57;3.95;;;10.30;99.90;;;;;;5047710;28;20045;-61
2023/07/25 02:13:20;;;;;;;9.32;3.58;;;10.30;99.90;;;;;;5052227;28;20392;-63
2023/07/25 02:15:48;;;;;;;7.57;3.58;;;10.30;99.90;;;;;;5051439;28;20349;-60
2023/07/25 02:18:15;;;;;;;6.20;3.22;;;10.20;99.90;;;;;;5034895;28;20041;-60
2023/07/25 02:20:43;;;;;;;6.35;3.50;;;10.20;99.90;;;;;;5053676;28;20041;-59
2023/07/25 02:23:11;;;;;;;8.20;3.92;;;10.20;99.90;;;;;;5052498;28;20044;-61
2023/07/25 02:25:39;;;;;;;10.27;3.25;;;10.20;99.90;;;;;;5052206;28;20051;-62
2023/07/25 02:28:06;;;;;;;6.20;2.92;;;10.20;99.90;;;;;;5052178;28;20045;-60
2023/07/25 02:30:34;;;;;;;7.03;3.42;;;10.20;99.90;;;;;;5053445;28;20044;-62
2023/07/25 02:33:02;;;;;;;6.93;2.92;;;10.20;99.90;;;;;;5053641;28;20056;-61
2023/07/25 02:35:30;;;;;;;8.10;3.60;;;10.20;99.90;;;;;;5050636;28;20068;-61
2023/07/25 02:37:57;;;;;;;8.27;2.95;;;10.20;99.90;;;;;;5040534;28;20040;-59
2023/07/25 02:40:25;;;;;;;5.22;2.92;;;10.10;99.90;;;;;;5052837;28;20041;-63
2023/07/25 02:42:53;;;;;;;8.15;3.28;;;10.10;99.90;;;;;;5051759;28;20524;-60
2023/07/25 02:45:20;;;;;;;11.68;3.15;;;10.10;99.90;;;;;;5052240;28;20052;-63
2023/07/25 02:47:48;;;;;;;7.03;3.03;;;10.10;99.90;;;;;;5053318;28;20399;-60
2023/07/25 02:50:16;;;;;;;9.57;3.28;;;10.00;99.90;;;;;;5052217;28;20060;-62
2023/07/25 02:52:43;;;;;;;6.78;3.13;;;10.10;99.90;;;;;;5047987;28;20045;-57
2023/07/25 02:55:11;;;;;;;6.88;3.50;;;10.00;99.90;;;;;;5050786;28;20055;-60
2023/07/25 02:57:39;;;;;;;4.10;2.80;;;10.00;99.90;;;;;;5051597;28;20199;-57
2023/07/25 03:00:07;;;;;;;12.18;3.47;;;10.00;99.90;;;;;;5051839;28;20508;-57
2023/07/25 03:02:35;;;;;;;4.22;2.75;;;9.90;99.90;;;;;;5050544;28;20045;-57
2023/07/25 03:05:02;;;;;;;7.82;2.75;;;9.90;99.90;;;;;;5051688;28;20048;-56
2023/07/25 03:07:30;;;;;;;7.93;2.85;;;9.90;99.90;;;;;;5052443;28;20053;-56
2023/07/25 03:09:57;;;;;;;5.45;3.03;;;9.90;99.90;;;;;;5050200;28;20480;-56
2023/07/25 03:12:25;;;;;;;5.68;3.30;;;9.90;99.90;;;;;;5046989;28;20093;-58
2023/07/25 03:14:53;;;;;;;5.03;3.20;;;9.90;99.90;;;;;;5047329;28;20044;-56
2023/07/25 03:17:20;;;;;;;7.53;3.72;;;9.90;99.90;;;;;;5049068;28;20045;-56
2023/07/25 03:19:48;;;;;;;9.80;3.55;;;10.00;99.90;;;;;;5047462;28;20150;-56
2023/07/25 03:22:18;;;;;;;10.43;3.65;;;10.00;99.90;;;;;;5046152;28;20053;-56
2023/07/25 03:24:47;;;;;;;6.15;3.28;;;10.10;99.90;;;;;;5048869;28;20041;-55
2023/07/25 03:27:19;;;;;;;7.90;3.17;;;10.10;99.90;;;;;;5049270;28;20045;-56
2023/07/25 03:29:46;;;;;;;9.18;3.30;;;10.20;99.90;;;;;;5047680;28;20045;-55
2023/07/25 03:32:14;;;;;;;5.10;3.00;;;10.30;99.90;;;;;;5047385;28;20041;-56
2023/07/25 03:34:42;;;;;;;4.45;2.92;;;10.30;99.90;;;;;;5047476;28;20523;-57
2023/07/25 03:37:10;;;;;;;11.68;3.25;;;10.40;99.90;;;;;;5043365;28;20489;-56
2023/07/25 03:39:37;;;;;;;4.22;2.63;;;10.40;99.90;;;;;;5049220;28;20493;-55
2023/07/25 03:42:05;;;;;;;5.75;2.65;;;10.50;99.90;;;;;;5051821;28;20477;-55
2023/07/25 03:44:33;;;;;;;8.38;2.95;;;10.50;99.90;;;;;;5048463;28;20053;-55
2023/07/25 03:47:03;;;;;;;8.10;3.53;;;10.60;99.90;;;;;;5048330;28;20251;-55
2023/07/25 03:49:31;;;;;;;7.15;2.67;;;10.60;99.90;;;;;;5048493;28;20045;-55
2023/07/25 03:51:59;;;;;;;4.57;2.63;;;10.60;99.90;;;;;;5048684;28;20045;-56
2023/07/25 03:54:26;;;;;;;5.72;2.67;;;10.70;99.90;;;;;;5046114;28;20041;-56
2023/07/25 03:56:54;;;;;;;5.97;2.25;;;10.70;99.90;;;;;;5041901;28;20416;-55
2023/07/25 03:59:22;;;;;;;4.22;2.20;;;10.70;99.90;;;;;;5049168;28;20049;-55
2023/07/25 04:01:49;;;;;;;4.55;2.45;;;10.80;99.90;;;;;;5050566;28;20056;-55
2023/07/25 04:04:17;;;;;;;5.60;2.35;;;10.80;99.90;;;;;;5050323;28;20052;-55
2023/07/25 04:06:45;;;;;;;18.42;3.10;;;10.80;99.90;;;;;;5047986;28;20052;-57
2023/07/25 04:09:13;;;;;;;7.68;2.63;;;10.80;99.90;;;;;;5052198;28;20060;-56
2023/07/25 04:11:40;;;;;;;7.03;2.58;;;10.90;99.90;;;;;;5042221;28;20060;-56
2023/07/25 04:14:08;;;;;;;9.85;3.40;;;10.90;99.90;;;;;;5046582;28;20045;-55
2023/07/25 04:16:35;;;;;;;7.88;2.38;;;10.90;99.90;;;;;;5046541;28;20064;-55
2023/07/25 04:19:03;;;;;;;6.70;2.40;;;10.90;99.90;;;;;;5047689;28;20052;-55
2023/07/25 04:21:31;;;;;;;6.13;2.60;;;11.00;99.90;;;;;;5051378;28;20041;-55
2023/07/25 04:23:59;;;;;;;4.38;2.30;;;11.00;99.90;;;;;;5047397;28;20463;-56
2023/07/25 04:26:26;;;;;;;5.43;2.15;;;11.00;99.90;;;;;;5048466;28;20056;-55
2023/07/25 04:28:54;;;;;;;4.18;2.42;;;11.10;99.90;;;;;;5047027;28;20048;-56
2023/07/25 04:31:22;;;;;;;6.90;2.40;;;11.10;99.90;;;;;;5047398;28;20041;-55
2023/07/25 04:33:49;;;;;;;6.43;2.03;;;11.10;99.90;;;;;;5048485;28;20049;-56
2023/07/25 04:36:17;;;;;;;4.35;2.63;;;11.10;99.90;;;;;;5050242;28;20056;-56
2023/07/25 04:38:44;;;;;;;4.47;2.63;;;11.20;99.90;;;;;;5053572;28;20049;-55
2023/07/25 04:41:12;;;;;;;9.63;2.90;;;11.10;99.90;;;;;;5049590;28;20049;-56
2023/07/25 04:43:40;;;;;;;6.20;2.88;;;11.20;99.90;;;;;;5046979;28;20401;-60
2023/07/25 04:46:07;;;;;;;9.48;3.22;;;11.20;99.90;;;;;;5047669;28;20065;-59
2023/07/25 04:48:35;;;;;;;8.75;3.28;;;11.20;99.90;;;;;;5036088;28;20052;-61
2023/07/25 04:51:03;;;;;;;6.60;3.47;;;11.20;99.90;;;;;;5047359;28;20045;-58
2023/07/25 04:53:30;;;;;;;6.32;2.80;;;11.20;99.90;;;;;;5047411;28;20053;-59
2023/07/25 04:55:58;;;;;;;7.80;3.00;;;11.20;99.90;;;;;;5029116;28;20037;-61
2023/07/25 04:58:26;;;;;;;7.00;3.05;;;11.20;99.90;;;;;;5029805;28;20052;-60
2023/07/25 05:00:53;;;;;;;9.30;3.55;;;11.20;99.90;;;;;;5047411;28;20044;-61
2023/07/25 05:03:21;;;;;;;5.82;3.28;;;11.20;99.90;;;;;;5035370;28;20052;-57
2023/07/25 05:05:51;;;;;;;8.27;3.25;;;11.20;99.90;;;;;;5041234;28;20049;-61
2023/07/25 05:08:19;;;;;;;10.00;3.17;;;11.20;99.90;;;;;;5047686;28;20067;-61
2023/07/25 05:10:50;;;;;;;8.43;3.33;;;11.20;99.90;;;;;;5042161;28;20036;-60
2023/07/25 05:13:18;;;;;;;7.10;3.45;;;11.20;99.90;;;;;;5046711;28;20049;-62
2023/07/25 05:15:46;;;;;;;8.55;2.80;;;11.30;99.90;;;;;;5047273;28;20048;-57
2023/07/25 05:18:14;;;;;;;10.00;3.20;;;11.30;99.90;;;;;;5047210;28;20049;-62
2023/07/25 05:20:42;;;;;;;9.65;3.00;;;11.30;99.90;;;;;;5046253;28;20045;-60
2023/07/25 05:23:10;;;;;;;4.47;2.60;;;11.30;99.90;;;;;;5043662;28;20512;-60
2023/07/25 05:25:38;;;;;;;6.72;3.00;;;11.40;99.90;;;;;;5036094;28;20541;-60
2023/07/25 05:28:07;;;;;;;5.18;2.47;;;11.40;99.90;;;;;;5042399;28;20044;-61
2023/07/25 05:30:35;;;;;;;7.28;3.05;;;11.40;99.90;;;;;;5040328;28;20045;-56
2023/07/25 05:33:03;;;;;;;4.20;2.40;;;11.50;99.90;;;;;;5042270;28;20500;-59
2023/07/25 05:35:31;;;;;;;6.28;3.10;;;11.60;99.90;;;;;;5043362;28;20048;-56
2023/07/25 05:38:00;;;;;;;4.55;2.50;;;11.60;99.90;;;;;;5043916;28;20046;-60
2023/07/25 05:40:28;;;;;;;5.07;2.47;;;11.60;99.90;;;;;;5043301;28;20044;-60
2023/07/25 05:42:55;;;;;;;5.88;2.42;;;11.70;99.90;;;;;;5046747;28;20187;-57
2023/07/25 05:45:23;;;;;;;2.80;1.88;;;11.70;99.90;;;;;;5043261;28;20048;-56
2023/07/25 05:47:51;;;;;;;4.53;2.00;;;11.70;99.90;;;;;;5045528;28;20056;-57
2023/07/25 05:50:19;;;;;;;3.22;2.28;;;11.80;99.90;;;;;;5046582;28;20052;-56
2023/07/25 05:52:47;;;;;;;3.95;2.03;;;11.80;99.90;;;;;;5046727;28;20053;-58
2023/07/25 05:55:15;;;;;;;6.05;1.95;;;11.80;99.90;;;;;;5047008;28;20048;-60
2023/07/25 05:57:42;;;;;;;5.65;1.95;;;11.90;99.90;;;;;;5051469;28;20040;-56
2023/07/25 06:00:10;;;;;;;4.38;1.88;;;11.90;99.90;;;;;;5047473;28;20044;-58
2023/07/25 06:02:38;;;;;;;4.18;1.88;;;11.90;99.90;;;;;;5053686;28;20048;-60
2023/07/25 06:05:07;;;;;;;4.45;2.42;;;11.90;99.90;;;;;;5046217;28;20040;-57
2023/07/25 06:07:35;;;;;;;7.32;2.20;;;12.00;99.90;;;;;;5053567;28;20393;-62
2023/07/25 06:10:03;;;;;;;3.00;1.55;;;12.00;99.90;;;;;;5051344;28;20040;-60
2023/07/25 06:12:31;;;;;;;3.15;1.50;;;12.00;99.90;;;;;;5051295;28;20393;-59
2023/07/25 06:14:58;;;;;;;3.58;1.75;;;12.00;99.90;;;;;;5043423;28;20052;-61
2023/07/25 06:17:26;;;;;;;4.65;2.03;;;12.00;99.90;;;;;;5054158;28;20040;-57
2023/07/25 06:19:55;;;;;;;5.13;2.25;;;12.10;99.90;;;;;;5041481;28;20091;-60
2023/07/25 06:22:22;;;;;;;2.38;1.95;;;12.10;99.90;;;;;;5050875;28;20519;-62
2023/07/25 06:24:50;;;;;;;2.75;1.52;;;12.10;99.90;;;;;;5053936;28;20388;-61
2023/07/25 06:27:18;;;;;;;2.97;1.77;;;12.20;99.90;;;;;;5044647;28;20467;-59
2023/07/25 06:29:46;;;;;;;5.57;2.00;;;12.20;99.90;;;;;;5046228;28;20048;-61
2023/07/25 06:32:14;;;;;;;3.97;2.03;;;12.20;99.90;;;;;;5045997;28;20041;-56
2023/07/25 06:34:42;;;;;;;4.85;2.35;;;12.20;99.90;;;;;;5045770;28;20037;-57
2023/07/25 06:37:10;;;;;;;6.40;1.42;;;12.20;99.90;;;;;;5047642;28;20055;-57
2023/07/25 06:39:37;;;;;;;5.95;2.00;;;12.20;99.90;;;;;;5050059;28;20041;-56
2023/07/25 06:42:07;;;;;;;4.20;2.30;;;12.30;99.90;;;;;;5048668;28;20037;-57
2023/07/25 06:44:36;;;;;;;5.68;2.00;;;12.30;99.90;;;;;;5048940;28;20044;-56
2023/07/25 06:47:04;;;;;;;3.30;2.15;;;12.30;99.90;;;;;;5015505;28;20071;-56
2023/07/25 06:49:31;;;;;;;3.17;1.50;;;12.30;99.90;;;;;;5047374;28;20071;-55
2023/07/25 06:52:00;;;;;;;4.05;1.85;;;12.40;99.90;;;;;;5050161;28;20048;-55
2023/07/25 06:54:28;;;;;;;7.30;1.80;;;12.40;99.90;;;;;;5048726;28;20422;-55
2023/07/25 06:56:55;;;;;;;3.60;1.60;;;12.50;99.90;;;;;;5049569;28;20045;-55
2023/07/25 06:59:24;;;;;;;2.58;1.73;;;12.60;99.90;;;;;;5053484;28;20044;-56
2023/07/25 07:01:52;;;;;;;4.95;1.65;;;12.70;99.90;;;;;;5047589;28;20507;-56
2023/07/25 07:04:19;;;;;;;3.03;1.70;;;12.70;99.90;;;;;;5043425;28;20052;-56
2023/07/25 07:06:48;;;;;;;3.67;1.75;;;12.80;99.90;;;;;;5046508;28;20515;-56
2023/07/25 07:09:16;;;;;;;3.85;1.45;;;12.90;99.90;;;;;;5051061;28;20455;-56
2023/07/25 07:11:43;;;;;;;2.78;1.33;;;13.00;99.90;;;;;;5044598;28;20064;-58
2023/07/25 07:14:11;;;;;;;3.08;1.00;;;13.00;99.90;;;;;;5049170;28;20049;-55
2023/07/25 07:16:39;;;;;;;4.30;1.48;;;13.00;99.90;;;;;;5049369;28;20048;-57
2023/07/25 07:19:07;;;;;;;3.63;1.23;;;13.00;99.90;;;;;;5053076;28;20051;-58
2023/07/25 07:21:34;;;;;;;3.78;1.42;;;13.00;99.90;;;;;;5046956;28;20037;-57
2023/07/25 07:24:02;;;;;;;3.75;1.50;;;13.00;99.90;;;;;;5053052;28;20057;-60
2023/07/25 07:26:30;;;;;;;1.65;1.23;;;12.90;99.90;;;;;;5046741;28;20465;-56
2023/07/25 07:29:00;;;;;;;6.20;1.33;;;13.00;99.90;;;;;;5038747;28;20484;-56
2023/07/25 07:31:27;;;;;;;2.58;1.23;;;13.00;99.90;;;;;;5046985;28;20472;-56
2023/07/25 07:34:16;;;;;;;2.88;1.40;;;13.00;99.90;;;;;;5044923;28;20063;-56
2023/07/25 07:36:44;;;;;;;2.53;1.02;;;13.00;99.90;;;;;;5043814;28;20049;-58
2023/07/25 07:39:12;;;;;;;3.85;1.23;;;13.10;99.90;;;;;;5051521;28;20037;-57
2023/07/25 07:41:40;;;;;;;1.73;1.20;;;13.10;99.90;;;;;;5048157;28;20044;-57
2023/07/25 07:44:08;;;;;;;4.13;1.30;;;13.10;99.90;;;;;;5037772;28;20068;-58
2023/07/25 07:46:35;;;;;;;2.78;1.52;;;13.20;99.90;;;;;;5041879;28;20037;-56
2023/07/25 07:49:03;;;;;;;2.75;1.42;;;13.20;99.90;;;;;;5041278;28;20052;-56
2023/07/25 07:51:31;;;;;;;2.35;1.00;;;13.30;99.90;;;;;;5044013;28;20051;-55
2023/07/25 07:53:59;;;;;;;3.20;1.50;;;13.30;99.90;;;;;;5046234;28;20477;-56
2023/07/25 07:56:27;;;;;;;3.05;1.48;;;13.30;99.90;;;;;;5046892;28;20052;-59
2023/07/25 07:58:55;;;;;;;3.30;1.35;;;13.40;99.90;;;;;;5047629;28;20074;-56
2023/07/25 08:01:23;;;;;;;3.28;1.27;;;13.40;99.90;;;;;;5046949;28;20053;-56
2023/07/25 08:03:51;;;;;;;3.65;1.38;;;13.50;99.90;;;;;;5042106;28;20067;-57
2023/07/25 08:06:19;;;;;;;4.35;1.45;;;13.60;99.90;;;;;;5039224;28;20045;-56
2023/07/25 08:08:47;;;;;;;1.55;1.20;;;13.60;99.90;;;;;;5043110;28;20056;-56
2023/07/25 08:11:15;;;;;;;2.30;0.90;;;13.80;99.90;;;;;;5042114;28;20508;-57
2023/07/25 08:13:43;;;;;;;3.25;1.10;;;13.90;99.90;;;;;;5042950;28;20052;-57
2023/07/25 08:16:10;;;;;;;2.25;1.23;;;14.00;99.90;;;;;;5045170;28;20033;-56
2023/07/25 08:18:38;;;;;;;6.50;1.52;;;14.10;99.90;;;;;;5046854;28;20068;-56
2023/07/25 08:21:06;;;;;;;4.45;1.23;;;14.20;99.90;;;;;;5045082;28;20041;-56
2023/07/25 08:23:33;;;;;;;2.83;1.10;;;14.20;99.90;;;;;;5042208;28;20071;-58
2023/07/25 08:26:01;;;;;;;4.00;0.98;;;14.30;99.90;;;;;;5047554;28;20041;-56
2023/07/25 08:28:29;;;;;;;5.70;0.95;;;14.40;99.90;;;;;;5044642;28;20053;-56
2023/07/25 08:31:01;;;;;;;1.35;0.65;;;14.40;99.90;;;;;;5046724;28;20029;-58
2023/07/25 08:33:31;;;;;;;1.65;0.90;;;14.50;99.90;;;;;;5044538;28;20045;-56
2023/07/25 08:35:59;;;;;;;7.85;1.70;;;14.60;99.90;;;;;;5035125;28;20500;-61
2023/07/25 08:38:27;;;;;;;4.70;1.35;;;14.70;99.90;;;;;;5048707;28;20531;-61
2023/07/25 08:41:12;;;;;;;4.38;1.10;;;14.80;99.90;;;;;;5046697;28;20037;-61
2023/07/25 08:43:41;;;;;;;5.55;1.30;;;14.90;99.90;;;;;;5038813;28;20055;-61
2023/07/25 08:46:11;;;;;;;3.33;0.98;;;15.00;99.90;;;;;;5042452;28;20040;-61
2023/07/25 08:48:41;;;;;;;1.40;0.90;;;15.10;99.90;;;;;;5039706;28;20061;-61
2023/07/25 08:51:18;;;;;;;5.82;1.25;;;15.20;99.90;;;;;;5044095;28;20043;-60
2023/07/25 08:54:11;;;;;;;3.80;0.90;;;15.30;99.90;;;;;;5044792;28;20507;-59
2023/07/25 08:56:39;;;;;;;2.90;1.05;;;15.40;99.90;;;;;;5045624;28;20049;-60
2023/07/25 08:59:07;;;;;;;4.45;1.30;;;15.50;99.90;;;;;;5049188;28;20047;-62
2023/07/25 09:01:36;;;;;;;1.67;1.58;;;15.50;99.90;;;;;;5042075;28;20315;-61
2023/07/25 09:04:04;;;;;;;4.53;1.20;;;15.60;99.90;;;;;;5040924;28;20044;-55
2023/07/25 09:06:32;;;;;;;6.43;1.40;;;15.60;99.90;;;;;;5038380;28;20056;-56
2023/07/25 09:09:00;;;;;;;5.50;1.20;;;15.80;99.90;;;;;;5042581;28;20062;-62
2023/07/25 09:11:28;;;;;;;3.53;1.13;;;15.90;99.90;;;;;;5043127;28;20385;-61
2023/07/25 09:13:56;;;;;;;2.92;1.00;;;16.00;99.90;;;;;;5044917;28;20060;-57
2023/07/25 09:16:24;;;;;;;2.28;1.00;;;16.00;99.90;;;;;;5044705;28;20413;-56
2023/07/25 09:18:52;;;;;;;1.90;1.25;;;16.00;99.90;;;;;;5034335;28;20049;-55
2023/07/25 09:21:20;;;;;;;3.78;1.15;;;16.00;99.90;;;;;;5038217;28;20307;-61
2023/07/25 09:23:55;;;;;;;3.28;1.10;;;16.10;99.90;;;;;;5047961;28;20052;-60
2023/07/25 09:26:28;;;;;;;5.43;1.25;;;16.10;99.90;;;;;;5052790;28;20044;-62
2023/07/25 09:29:00;;;;;;;2.17;1.35;;;16.20;99.90;;;;;;5047575;28;20041;-60
2023/07/25 09:31:29;;;;;;;2.40;1.00;;;16.20;99.90;;;;;;5046504;28;20056;-59
2023/07/25 09:33:57;;;;;;;2.83;0.80;;;16.30;99.90;;;;;;5048557;28;20052;-62
2023/07/25 09:36:30;;;;;;;1.92;1.45;;;16.30;99.90;;;;;;5041245;28;20493;-60
2023/07/25 09:38:59;;;;;;;3.55;1.05;;;16.30;99.90;;;;;;5042171;28;20532;-61
2023/07/25 09:41:26;;;;;;;5.20;1.10;;;16.30;99.90;;;;;;5048539;28;20065;-62
2023/07/25 09:44:02;;;;;;;3.83;1.20;;;16.40;99.90;;;;;;5051943;28;20053;-61
2023/07/25 09:46:30;;;;;;;2.47;1.05;;;16.50;99.90;;;;;;5046802;28;20404;-61
2023/07/25 09:48:58;;;;;;;2.38;1.23;;;16.50;99.90;;;;;;5046350;28;20055;-56
2023/07/25 09:51:25;;;;;;;2.67;1.27;;;16.60;99.90;;;;;;5049121;28;20051;-56
2023/07/25 09:53:56;;;;;;;2.35;1.05;;;16.70;99.90;;;;;;5049358;28;20059;-55
2023/07/25 09:56:26;;;;;;;1.67;0.90;;;16.80;99.90;;;;;;5050590;28;20041;-56
2023/07/25 09:58:54;;;;;;;3.78;1.55;;;17.00;99.90;;;;;;5048627;28;20045;-57
2023/07/25 10:01:26;;;;;;;5.05;0.85;;;17.20;99.90;;;;;;5047828;28;20049;-55
2023/07/25 10:03:54;;;;;;;2.70;0.93;;;17.30;99.90;;;;;;5049205;28;20049;-58
2023/07/25 10:06:23;;;;;;;2.17;0.95;;;17.30;99.90;;;;;;5046449;28;20041;-59
2023/07/25 10:08:51;;;;;;;1.65;1.00;;;17.30;99.90;;;;;;5047148;28;20056;-57
2023/07/25 10:11:21;;;;;;;2.85;0.80;;;17.40;99.90;;;;;;5044621;28;20053;-56
2023/07/25 10:13:52;;;;;;;1.98;0.98;;;17.50;99.90;;;;;;5042487;28;20506;-56
2023/07/25 10:16:21;;;;;;;4.47;1.45;;;17.70;99.90;;;;;;5045908;28;20633;-57
2023/07/25 10:18:54;;;;;;;5.45;1.38;;;17.80;99.90;;;;;;5044688;28;20040;-59
2023/07/25 10:21:29;;;;;;;3.20;1.30;;;17.90;99.90;;;;;;5045746;28;20048;-56
2023/07/25 10:24:02;;;;;;;7.32;1.33;;;18.00;99.90;;;;;;5042754;28;20041;-58
2023/07/25 10:26:30;;;;;;;5.75;1.20;;;18.10;99.90;;;;;;5045495;28;20059;-57
2023/07/25 10:29:01;;;;;;;5.80;1.52;;;18.20;99.90;;;;;;5048915;28;20045;-58
2023/07/25 10:31:35;;;;;;;1.50;1.20;;;18.20;99.90;;;;;;5050760;28;20067;-56
2023/07/25 10:34:04;;;;;;;2.90;1.10;;;18.40;99.90;;;;;;5048542;28;20048;-56
2023/07/25 10:36:32;;;;;;;3.63;1.38;;;18.70;99.90;;;;;;5051162;28;20502;-58
2023/07/25 10:39:06;;;;;;;4.57;1.15;;;18.90;99.90;;;;;;5044532;28;20072;-57
2023/07/25 10:41:34;;;;;;;2.15;1.40;;;19.00;99.90;;;;;;5042636;28;20796;-58
2023/07/25 10:44:02;;;;;;;3.42;1.02;;;19.00;99.90;;;;;;5045360;28;20802;-59
2023/07/25 10:46:32;;;;;;;3.78;1.50;;;19.00;99.90;;;;;;5045992;28;20044;-60
2023/07/25 10:49:01;;;;;;;2.33;1.15;;;19.10;99.90;;;;;;5039637;28;20056;-56
2023/07/25 10:51:51;;;;;;;4.05;1.10;;;19.30;99.90;;;;;;5047778;28;20052;-56
2023/07/25 10:54:21;;;;;;;;;;;19.50;99.90;;;;;;5048595;28;20444;-59
2023/07/25 10:57:10;;;;;;;3.83;0.82;;;19.60;99.90;;;;;;5044878;28;19928;-55
2023/07/25 11:00:11;;;;;;;1.60;0.80;;;19.50;99.90;;;;;;5044560;28;20769;-57
2023/07/25 11:02:43;;;;;;;2.03;0.70;;;19.50;99.90;;;;;;5044950;28;20053;-55
2023/07/25 11:05:18;;;;;;;2.63;0.80;;;19.40;99.90;;;;;;5038404;28;20045;-59
2023/07/25 11:07:50;;;;;;;3.20;0.98;;;19.20;99.90;;;;;;5037678;28;20052;-55
2023/07/25 11:10:28;;;;;;;3.17;0.90;;;18.90;99.90;;;;;;5034967;28;20049;-56
2023/07/25 11:12:58;;;;;;;1.25;0.93;;;18.50;99.90;;;;;;5051810;28;20227;-58
2023/07/25 11:15:26;;;;;;;3.95;1.30;;;18.40;99.90;;;;;;5042220;28;20033;-57
2023/07/25 11:18:13;;;;;;;4.15;1.00;;;18.30;99.90;;;;;;5037718;28;20045;-57
2023/07/25 11:20:41;;;;;;;4.25;1.00;;;18.20;99.90;;;;;;5037755;28;20052;-56
2023/07/25 11:23:09;;;;;;;4.95;1.55;;;18.20;99.90;;;;;;5051417;28;20068;-57
2023/07/25 11:25:36;;;;;;;3.00;1.45;;;18.40;99.90;;;;;;5041125;28;20052;-56
2023/07/25 11:28:06;;;;;;;5.78;1.42;;;18.50;99.90;;;;;;5046302;28;20048;-56
2023/07/25 11:30:34;;;;;;;2.80;1.33;;;18.60;99.90;;;;;;5042603;28;20049;-55
2023/07/25 11:33:02;;;;;;;3.25;1.20;;;18.60;99.90;;;;;;5048442;28;20048;-56
2023/07/25 11:35:29;;;;;;;2.63;0.98;;;18.60;99.90;;;;;;5042492;28;20041;-57
2023/07/25 11:38:02;;;;;;;2.88;1.17;;;18.60;99.90;;;;;;5041825;28;20060;-57
2023/07/25 11:40:31;;;;;;;5.57;1.10;;;18.40;99.90;;;;;;5043551;28;20056;-55
2023/07/25 11:42:59;;;;;;;2.03;1.02;;;18.40;99.90;;;;;;5042541;28;20061;-56
2023/07/25 11:45:27;;;;;;;2.35;0.95;;;18.30;99.90;;;;;;5036867;28;20383;-56
2023/07/25 11:47:55;;;;;;;2.63;0.80;;;18.20;99.90;;;;;;5044511;28;20056;-55
2023/07/25 11:50:24;;;;;;;1.88;1.48;;;18.10;99.90;;;;;;5044856;28;20044;-57
2023/07/25 11:53:02;;;;;;;3.38;0.90;;;18.00;99.90;;;;;;5050061;28;20041;-55
2023/07/25 11:55:30;;;;;;;2.20;0.98;;;17.90;99.90;;;;;;5039733;28;20120;-58
2023/07/25 11:58:01;;;;;;;4.43;1.45;;;17.90;99.90;;;;;;5040909;28;20052;-56
2023/07/25 12:00:42;;;;;;;1.77;0.70;;;17.90;99.90;;;;;;5045559;28;20037;-56
2023/07/25 12:03:20;;;;;;;1.65;1.23;;;18.00;99.90;;;;;;5049504;28;20052;-57
2023/07/25 12:05:59;;;;;;;1.65;1.38;;;18.00;99.90;;;;;;5038426;28;20053;-55
2023/07/25 12:08:35;;;;;;;1.10;1.00;;;18.00;99.90;;;;;;5045056;28;20041;-57
2023/07/25 12:11:08;;;;;;;4.93;1.20;;;18.10;99.90;;;;;;5044649;28;20041;-56
2023/07/25 12:13:50;;;;;;;6.05;1.40;;;18.10;99.90;;;;;;5045656;28;20044;-56
2023/07/25 12:16:34;;;;;;;1.17;0.80;;;18.30;99.90;;;;;;5039935;28;20040;-55
2023/07/25 12:19:08;;;;;;;1.80;0.75;;;18.50;99.90;;;;;;5039595;28;20046;-55
2023/07/25 12:21:40;;;;;;;1.23;0.90;;;18.50;99.90;;;;;;5031345;28;20049;-55
2023/07/25 12:24:10;;;;;;;1.55;0.70;;;18.70;99.90;;;;;;5035484;28;20064;-56
2023/07/25 12:26:55;;;;;;;1.88;1.15;;;18.70;99.90;;;;;;5035599;28;20416;-56
2023/07/25 12:29:27;;;;;;;2.67;0.80;;;18.90;99.90;;;;;;5033701;28;20068;-60
2023/07/25 12:31:56;;;;;;;1.35;0.88;;;19.00;99.90;;;;;;5035860;28;20055;-56
2023/07/25 12:34:23;;;;;;;3.42;2.33;;;19.20;99.90;;;;;;5044145;28;20053;-57
2023/07/25 12:36:52;;;;;;;2.92;1.60;;;19.20;99.90;;;;;;5043822;28;20725;-60
2023/07/25 12:39:20;;;;;;;2.65;1.55;;;19.30;99.90;;;;;;5050011;28;20123;-58
2023/07/25 12:41:48;;;;;;;3.58;1.35;;;19.30;99.90;;;;;;5045646;28;20037;-55
2023/07/25 12:44:17;;;;;;;5.75;1.25;;;19.10;99.90;;;;;;5040930;28;20041;-57
2023/07/25 12:46:45;;;;;;;3.77;1.20;;;19.00;99.90;;;;;;5045121;28;20045;-61
2023/07/25 12:49:13;;;;;;;3.08;0.95;;;19.00;99.90;;;;;;5047192;28;20297;-62
2023/07/25 12:51:40;;;;;;;5.47;1.38;;;19.00;99.90;;;;;;5046852;28;20392;-59
2023/07/25 12:54:08;;;;;;;1.23;1.00;;;19.00;99.90;;;;;;5051488;28;20045;-61
2023/07/25 12:56:36;;;;;;;1.70;0.95;;;19.40;99.90;;;;;;5044422;28;20052;-61
2023/07/25 12:59:04;;;;;;;2.97;1.75;;;19.40;99.90;;;;;;5037796;28;20432;-62